Aeroporto :
LOGIN :

Iscrizione | Disclaimer

   EN    FR    IT 

 










Sommario :    VFR   VFR Marginale   IFR   IFR Intensivo   IFR Molto Intensivo
Visibilità : 
Base nubi : 
>= 8 km
>= 3000ft
5 / 8 km
1000 / 3000 ft
1500m / 5 km
500 / 1000 ft
800 / 1500m
200 / 500 ft
< 800m
< 200 ft
Simboli :   Temporali  Nebbia  Neve Forte  Precipitazioni Forti  Vento > 20 kt
SIGMETs :   Varie  Temporali  Ghiacco  Turbolenza  Onda orograficha  Ceneri Vulcaniche






- Altitudine del aeroporto : 123 ft
- Codice IATA : BLQ


LIPE - Bologna Guglielmo Marconi

ULTIMO METAR :
  • 220720Z 11007KT 0600 R12/1100D R30/1200U FG OVC001 08/07 Q1013

METARs OBSOLETI :
  • 220650Z 14004KT 0800 R12/P1500N R30/P1500N FG OVC001 08/07 Q1013
  • 220620Z 20004KT 1200 R12/P1500N R30/P1500N BR OVC002 08/07 Q1013
  • 220550Z 16003KT 2500 BR BKN002 08/07 Q1013
  • 220520Z 19003KT 2500 BR BKN002 08/07 Q1013
  • 220450Z 20003KT 2500 BR BKN002 08/07 Q1013

TAF TAF LIPE
Valido dal 22 a 06 ore il 23 a 06 ore UTC


220500Z 2206/2306 VRB04KT 1200 BR BKN004
TEMPO 2206/2208 0300 FG
BECMG 2209/2211 6000 SCT020
BECMG 2218/2220 3000 BR BKN008



MetMap, La meteo Aeronautica in un colpo d'occhio ! - Copyright ORBIFLY Dicembre 2007 - Disclaimer

ORBIFLY MET'MAP TEAM :

Programmazione e sviluppo : Alexandra Zaïnal
Concezione e sviluppo : Baudouin d'Aumeries
Co-Programmazione e sviluppo : Marc-Olivier Méhu
Supporto tecnico e logistico : Manuel Goepfert
Aiuto per la traduzione : Arnaldo La Scala

Contatto : metmap@orbifly.com




FONTI E CREDITI :

   NOAA